Time;durP1;ratioP1;P1;durP2;ratioP2;P2;SDS_P1;SDS_P2;PMS_P1;PMS_P2;Temp;Humidity;BMP_temperature;BMP_pressure;BME280_temperature;BME280_humidity;BME280_pressure;Samples;Min_cycle;Max_cycle;Signal;HPM_P1;HPM_P2
2021/05/07 00:00:07;;;;;;;17.60;16.80;;;10.20;83.70;;;;;;5113548;28;20194;-76
2021/05/07 00:02:34;;;;;;;17.90;17.00;;;10.20;83.90;;;;;;5113428;28;20195;-75
2021/05/07 00:05:00;;;;;;;18.23;17.33;;;10.20;83.70;;;;;;5113096;28;20230;-75
2021/05/07 00:07:27;;;;;;;18.70;17.80;;;10.30;83.50;;;;;;5112284;28;20195;-75
2021/05/07 00:09:53;;;;;;;18.15;17.25;;;10.30;82.40;;;;;;5113126;28;20285;-76
2021/05/07 00:12:19;;;;;;;18.60;17.70;;;10.30;82.40;;;;;;5113002;28;20222;-75
2021/05/07 00:14:46;;;;;;;18.25;17.40;;;10.40;81.70;;;;;;5113144;28;20226;-76
2021/05/07 00:17:13;;;;;;;18.13;17.23;;;10.40;81.90;;;;;;5112290;28;20199;-75
2021/05/07 00:19:39;;;;;;;18.20;17.40;;;10.40;81.60;;;;;;5112950;28;20277;-76
2021/05/07 00:22:06;;;;;;;18.63;17.73;;;10.30;81.80;;;;;;5112981;28;20301;-76
2021/05/07 00:24:32;;;;;;;17.90;17.00;;;10.30;81.70;;;;;;5112930;28;20222;-76
2021/05/07 00:27:00;;;;;;;18.40;17.50;;;10.30;82.10;;;;;;5112081;28;20200;-76
2021/05/07 00:29:29;;;;;;;17.88;17.08;;;10.20;82.20;;;;;;5112887;28;20230;-76
2021/05/07 00:31:55;;;;;;;17.42;16.63;;;10.30;82.00;;;;;;5112621;28;20225;-76
2021/05/07 00:34:23;;;;;;;17.75;16.95;;;10.20;82.30;;;;;;5112289;27;20308;-76
2021/05/07 00:36:49;;;;;;;17.80;17.00;;;10.20;81.90;;;;;;5112306;28;20568;-76
2021/05/07 00:39:16;;;;;;;18.48;17.48;;;10.20;81.90;;;;;;5112495;28;20216;-76
2021/05/07 00:41:42;;;;;;;18.20;17.40;;;10.10;82.10;;;;;;5112483;28;20590;-77
2021/05/07 00:44:08;;;;;;;18.42;17.55;;;10.10;82.00;;;;;;5112699;28;20214;-76
2021/05/07 00:46:37;;;;;;;17.98;17.17;;;10.10;82.00;;;;;;5112016;28;20198;-76
2021/05/07 00:49:04;;;;;;;18.10;17.30;;;10.10;82.20;;;;;;5112514;28;20195;-77
2021/05/07 00:51:31;;;;;;;18.50;17.65;;;10.10;81.50;;;;;;5112572;28;20692;-76
2021/05/07 00:53:57;;;;;;;17.80;17.00;;;10.10;81.70;;;;;;5112566;28;20277;-75
2021/05/07 00:56:24;;;;;;;18.10;17.30;;;10.10;81.90;;;;;;5112093;28;20202;-75
2021/05/07 00:58:51;;;;;;;18.20;17.40;;;10.10;81.70;;;;;;5112635;28;20601;-75
2021/05/07 01:01:18;;;;;;;18.00;17.20;;;10.10;81.40;;;;;;5112282;28;20579;-75
2021/05/07 01:03:44;;;;;;;17.70;16.90;;;10.00;81.90;;;;;;5112373;28;20217;-75
2021/05/07 01:06:11;;;;;;;18.30;17.50;;;10.00;82.10;;;;;;5112165;28;20572;-74
2021/05/07 01:08:38;;;;;;;17.90;17.10;;;10.00;81.20;;;;;;5112491;28;20217;-75
2021/05/07 01:11:05;;;;;;;18.50;17.60;;;10.00;81.10;;;;;;5112550;28;20218;-77
2021/05/07 01:13:32;;;;;;;19.00;18.10;;;9.90;82.20;;;;;;5112397;28;20205;-75
2021/05/07 01:15:59;;;;;;;18.60;17.70;;;10.00;81.60;;;;;;5111852;28;20737;-76
2021/05/07 01:18:26;;;;;;;18.20;17.40;;;9.90;80.90;;;;;;5112521;28;20195;-76
2021/05/07 01:20:53;;;;;;;19.38;18.38;;;9.80;82.00;;;;;;5116345;28;20222;-75
2021/05/07 01:23:20;;;;;;;18.30;17.50;;;9.70;81.80;;;;;;5116399;28;20198;-75
2021/05/07 01:25:47;;;;;;;18.42;17.63;;;9.70;82.80;;;;;;5115913;28;20644;-75
2021/05/07 01:28:15;;;;;;;19.00;17.90;;;9.70;81.40;;;;;;5116145;28;20203;-75
2021/05/07 01:30:43;;;;;;;19.02;18.13;;;9.60;81.20;;;;;;5116202;28;20359;-75
2021/05/07 01:33:11;;;;;;;19.60;18.50;;;9.60;80.40;;;;;;5115825;28;20281;-76
2021/05/07 01:35:38;;;;;;;19.60;18.60;;;9.50;80.00;;;;;;5115693;27;20267;-76
2021/05/07 01:38:08;;;;;;;19.60;18.60;;;9.50;80.30;;;;;;5116113;28;20281;-75
2021/05/07 01:40:36;;;;;;;20.00;19.00;;;9.40;79.80;;;;;;5116043;28;20301;-75
2021/05/07 01:43:03;;;;;;;19.67;18.77;;;9.20;80.50;;;;;;5115825;28;20299;-75
2021/05/07 01:45:31;;;;;;;19.50;18.60;;;9.00;80.50;;;;;;5115264;28;20676;-75
2021/05/07 01:47:58;;;;;;;19.10;18.20;;;9.00;82.20;;;;;;5115954;28;20194;-75
2021/05/07 01:50:27;;;;;;;18.60;17.70;;;9.00;81.30;;;;;;5116218;28;20651;-75
2021/05/07 01:52:54;;;;;;;18.15;17.15;;;9.00;81.70;;;;;;5115831;28;20289;-76
2021/05/07 01:55:24;;;;;;;17.88;17.08;;;9.00;82.50;;;;;;5115590;28;20243;-75
2021/05/07 01:57:51;;;;;;;18.15;17.25;;;9.10;82.70;;;;;;5115634;28;20289;-75
2021/05/07 02:00:20;;;;;;;18.08;17.27;;;9.10;82.20;;;;;;5115778;28;20293;-76
2021/05/07 02:02:47;;;;;;;18.45;17.55;;;9.00;81.90;;;;;;5115866;28;20197;-75
2021/05/07 02:05:15;;;;;;;17.70;16.90;;;8.90;83.00;;;;;;5115623;28;20704;-75
2021/05/07 02:07:43;;;;;;;17.83;17.02;;;8.80;83.00;;;;;;5115025;28;20244;-75
2021/05/07 02:10:11;;;;;;;17.65;16.85;;;8.70;83.50;;;;;;5115464;28;20208;-76
2021/05/07 02:12:39;;;;;;;17.77;16.92;;;8.60;84.20;;;;;;5115558;28;20203;-75
2021/05/07 02:15:08;;;;;;;17.35;16.55;;;8.60;84.90;;;;;;5115473;28;20280;-75
2021/05/07 02:17:34;;;;;;;17.13;16.35;;;8.80;85.40;;;;;;5114794;28;20240;-76
2021/05/07 02:20:00;;;;;;;17.35;16.55;;;8.80;85.80;;;;;;5115279;28;20224;-76
2021/05/07 02:22:29;;;;;;;17.75;16.90;;;8.80;86.00;;;;;;5115378;28;20215;-76
2021/05/07 02:24:55;;;;;;;17.70;16.90;;;8.70;86.30;;;;;;5115339;28;20219;-77
2021/05/07 02:27:21;;;;;;;17.77;16.88;;;8.80;86.20;;;;;;5114841;28;20652;-76
2021/05/07 02:29:49;;;;;;;16.25;15.55;;;8.80;86.10;;;;;;5115085;28;20286;-76
2021/05/07 02:32:15;;;;;;;15.95;15.25;;;8.70;87.10;;;;;;5114463;28;20254;-74
2021/05/07 02:34:41;;;;;;;15.75;15.05;;;8.70;89.40;;;;;;5114782;27;20195;-75
2021/05/07 02:37:08;;;;;;;17.17;16.20;;;8.70;91.40;;;;;;5114513;28;20285;-76
2021/05/07 02:39:35;;;;;;;17.50;16.65;;;8.60;89.30;;;;;;5114745;28;20191;-74
2021/05/07 02:42:02;;;;;;;18.25;17.35;;;8.80;88.40;;;;;;5114572;28;20227;-75
2021/05/07 02:44:28;;;;;;;17.20;16.50;;;8.90;86.40;;;;;;5114912;28;20301;-76
2021/05/07 02:47:03;;;;;;;18.25;17.30;;;9.00;86.10;;;;;;5114371;28;20195;-76
2021/05/07 02:49:29;;;;;;;16.92;16.23;;;8.90;86.60;;;;;;5114800;28;20293;-75
2021/05/07 02:51:55;;;;;;;17.40;16.60;;;9.00;86.40;;;;;;5114617;28;20253;-75
2021/05/07 02:54:22;;;;;;;17.63;16.83;;;9.00;86.00;;;;;;5114741;28;20556;-75
2021/05/07 02:56:48;;;;;;;17.40;16.60;;;9.00;85.40;;;;;;5114303;28;20195;-76
2021/05/07 02:59:15;;;;;;;18.67;17.17;;;9.00;85.60;;;;;;5114586;28;20198;-75
2021/05/07 03:01:42;;;;;;;16.98;16.00;;;8.90;86.00;;;;;;5114476;28;20717;-75
2021/05/07 03:04:09;;;;;;;18.08;17.20;;;8.90;86.00;;;;;;5114261;28;20222;-75
2021/05/07 03:06:36;;;;;;;18.02;17.13;;;8.90;86.10;;;;;;5113869;28;20694;-75
2021/05/07 03:09:02;;;;;;;18.00;17.20;;;8.90;85.30;;;;;;5114330;28;20191;-75
2021/05/07 03:11:29;;;;;;;18.88;17.70;;;8.90;85.40;;;;;;5114304;28;20211;-75
2021/05/07 03:13:55;;;;;;;21.30;19.17;;;8.80;86.10;;;;;;5114530;28;20191;-75
2021/05/07 03:16:22;;;;;;;19.98;18.85;;;8.70;87.40;;;;;;5113535;27;20286;-75
2021/05/07 03:18:48;;;;;;;19.17;18.27;;;8.80;87.40;;;;;;5114208;28;20194;-75
2021/05/07 03:21:15;;;;;;;21.13;20.05;;;8.80;86.70;;;;;;5114096;28;20353;-75
2021/05/07 03:23:42;;;;;;;17.23;16.42;;;8.90;86.80;;;;;;5114097;28;20285;-76
2021/05/07 03:26:13;;;;;;;20.60;19.70;;;8.80;87.80;;;;;;5113493;28;20761;-76
2021/05/07 03:28:40;;;;;;;18.17;17.38;;;8.80;86.80;;;;;;5114057;28;20652;-75
2021/05/07 03:31:06;;;;;;;17.63;16.83;;;8.80;86.90;;;;;;5113769;28;20580;-75
2021/05/07 03:33:33;;;;;;;19.20;18.30;;;8.80;87.10;;;;;;5113576;28;20222;-75
2021/05/07 03:35:59;;;;;;;17.90;17.10;;;8.80;87.10;;;;;;5113407;28;20615;-76
2021/05/07 03:38:27;;;;;;;17.45;16.65;;;8.80;86.60;;;;;;5113661;27;20393;-74
2021/05/07 03:40:53;;;;;;;21.80;20.10;;;8.70;86.90;;;;;;5113516;28;20214;-76
2021/05/07 03:43:20;;;;;;;18.10;17.20;;;8.80;87.10;;;;;;5112806;28;20203;-75
2021/05/07 03:45:47;;;;;;;21.30;20.20;;;8.80;86.80;;;;;;5113109;28;20305;-75
2021/05/07 03:48:15;;;;;;;18.65;17.75;;;8.70;86.90;;;;;;5113716;28;20273;-75
2021/05/07 03:50:43;;;;;;;18.60;17.70;;;8.60;87.20;;;;;;5113323;28;20232;-76
2021/05/07 03:53:10;;;;;;;20.30;19.40;;;8.60;86.80;;;;;;5113650;28;20743;-76
2021/05/07 03:55:38;;;;;;;20.30;19.30;;;8.50;87.50;;;;;;5112996;28;20205;-76
2021/05/07 03:58:04;;;;;;;18.80;17.80;;;8.50;88.80;;;;;;5113310;28;20661;-75
2021/05/07 04:00:31;;;;;;;21.33;20.42;;;8.60;88.70;;;;;;5113280;28;20218;-75
2021/05/07 04:02:57;;;;;;;19.45;18.55;;;8.60;87.10;;;;;;5113396;28;20234;-75
2021/05/07 04:05:23;;;;;;;19.73;18.73;;;8.60;86.10;;;;;;5113030;28;20215;-75
2021/05/07 04:07:58;;;;;;;20.83;19.50;;;8.40;86.80;;;;;;5113002;28;20241;-75
2021/05/07 04:10:28;;;;;;;18.73;17.73;;;8.50;87.10;;;;;;5113220;28;20277;-75
2021/05/07 04:15:39;;;;;;;18.75;17.73;;;8.40;86.50;;;;;;5112679;28;20239;-75
2021/05/07 04:18:06;;;;;;;19.50;18.30;;;8.40;88.10;;;;;;5113029;28;20194;-75
2021/05/07 04:20:32;;;;;;;19.48;18.58;;;8.40;87.90;;;;;;5112942;28;20214;-75
2021/05/07 04:22:59;;;;;;;20.33;18.95;;;8.50;86.50;;;;;;5112866;28;20533;-76
2021/05/07 04:25:25;;;;;;;20.40;19.17;;;8.40;86.40;;;;;;5112776;28;20228;-75
2021/05/07 04:27:51;;;;;;;18.05;17.00;;;8.40;86.70;;;;;;5113038;28;20564;-75
2021/05/07 04:30:20;;;;;;;18.55;17.25;;;8.40;85.80;;;;;;5113115;28;20215;-76
2021/05/07 04:32:46;;;;;;;17.90;17.00;;;8.40;86.10;;;;;;5112518;28;20299;-75
2021/05/07 04:35:13;;;;;;;19.40;18.40;;;8.40;86.30;;;;;;5112854;28;20285;-76
2021/05/07 04:37:39;;;;;;;19.88;18.88;;;8.30;85.90;;;;;;5112046;28;20201;-75
2021/05/07 04:40:06;;;;;;;18.75;17.85;;;8.20;86.70;;;;;;5112730;27;20205;-75
2021/05/07 04:42:33;;;;;;;20.60;19.60;;;8.20;87.40;;;;;;5112750;28;20206;-75
2021/05/07 04:44:59;;;;;;;22.23;20.42;;;8.20;88.00;;;;;;5112536;28;20308;-75
2021/05/07 04:47:26;;;;;;;20.05;18.58;;;8.20;88.00;;;;;;5112146;28;20198;-75
2021/05/07 04:49:53;;;;;;;21.02;20.02;;;8.20;89.30;;;;;;5112735;28;20218;-75
2021/05/07 04:52:19;;;;;;;21.20;20.20;;;8.30;88.40;;;;;;5112499;28;20301;-75
2021/05/07 04:54:45;;;;;;;20.13;19.13;;;8.30;87.50;;;;;;5112370;28;20194;-75
2021/05/07 04:57:12;;;;;;;19.65;18.75;;;8.30;89.90;;;;;;5111973;28;20287;-75
2021/05/07 04:59:39;;;;;;;19.52;18.58;;;8.30;92.00;;;;;;5112712;28;20202;-75
2021/05/07 05:02:05;;;;;;;18.02;17.13;;;8.30;89.90;;;;;;5112481;28;20217;-75
2021/05/07 05:04:32;;;;;;;20.15;19.05;;;8.30;88.60;;;;;;5112487;28;20283;-75
2021/05/07 05:06:59;;;;;;;18.52;17.63;;;8.40;87.10;;;;;;5111817;28;20627;-75
2021/05/07 05:09:25;;;;;;;19.77;18.02;;;8.40;87.20;;;;;;5112509;28;20288;-76
2021/05/07 05:11:52;;;;;;;18.90;18.00;;;8.30;89.20;;;;;;5112390;28;20305;-75
2021/05/07 05:14:18;;;;;;;19.00;18.13;;;8.40;88.10;;;;;;5112653;28;20197;-75
2021/05/07 05:16:44;;;;;;;19.20;18.05;;;8.50;86.50;;;;;;5111798;28;20612;-75
2021/05/07 05:19:11;;;;;;;19.55;18.65;;;8.40;86.90;;;;;;5112398;28;20251;-74
2021/05/07 05:21:38;;;;;;;19.27;18.38;;;8.40;87.20;;;;;;5112355;28;20573;-75
2021/05/07 05:24:05;;;;;;;18.25;17.45;;;8.50;86.60;;;;;;5112316;28;20711;-75
2021/05/07 05:26:32;;;;;;;18.30;17.50;;;8.60;86.70;;;;;;5111800;28;20264;-75
2021/05/07 05:28:58;;;;;;;20.30;19.20;;;8.60;86.90;;;;;;5112392;28;20690;-75
2021/05/07 05:31:24;;;;;;;20.23;19.23;;;8.60;84.20;;;;;;5112329;28;20561;-75
2021/05/07 05:33:51;;;;;;;20.20;19.10;;;8.50;83.80;;;;;;5111686;27;20273;-75
2021/05/07 05:36:17;;;;;;;28.40;20.73;;;8.50;83.70;;;;;;5111637;28;20238;-75
2021/05/07 05:38:45;;;;;;;21.52;20.33;;;8.30;83.60;;;;;;5111999;28;20194;-75
2021/05/07 05:41:11;;;;;;;22.30;21.10;;;8.30;85.20;;;;;;5111972;28;20316;-75
2021/05/07 05:43:37;;;;;;;21.98;20.77;;;8.40;84.30;;;;;;5112175;28;20224;-75
2021/05/07 05:46:04;;;;;;;19.52;18.52;;;8.40;83.60;;;;;;5111727;28;20301;-75
2021/05/07 05:48:30;;;;;;;21.55;20.45;;;8.40;83.50;;;;;;5111932;28;20321;-75
2021/05/07 05:50:57;;;;;;;21.55;20.35;;;8.40;82.70;;;;;;5112013;28;20584;-75
2021/05/07 05:53:23;;;;;;;22.05;20.85;;;8.40;82.90;;;;;;5111905;28;20203;-75
2021/05/07 05:55:50;;;;;;;23.02;21.77;;;8.40;81.90;;;;;;5111807;28;20191;-75
2021/05/07 05:58:17;;;;;;;21.90;20.65;;;8.30;81.60;;;;;;5112044;28;20233;-75
2021/05/07 06:00:43;;;;;;;22.58;21.27;;;8.30;83.70;;;;;;5112011;28;20241;-76
2021/05/07 06:03:09;;;;;;;22.85;21.55;;;8.40;83.00;;;;;;5111910;28;20755;-75
2021/05/07 06:05:36;;;;;;;22.20;20.65;;;8.50;83.40;;;;;;5111294;28;20244;-75
2021/05/07 06:08:02;;;;;;;20.70;19.30;;;8.60;84.30;;;;;;5115765;28;20231;-76
2021/05/07 06:10:29;;;;;;;21.77;20.52;;;8.60;84.00;;;;;;5115870;28;20240;-76
2021/05/07 06:12:56;;;;;;;22.15;21.00;;;8.50;86.20;;;;;;5115490;28;20212;-76
2021/05/07 06:15:23;;;;;;;21.40;20.20;;;8.70;85.50;;;;;;5115555;28;20269;-76
2021/05/07 06:17:50;;;;;;;22.13;20.92;;;8.80;84.60;;;;;;5115093;28;20625;-75
2021/05/07 06:20:18;;;;;;;21.77;20.48;;;8.90;85.40;;;;;;5115445;28;20194;-76
2021/05/07 06:22:45;;;;;;;21.17;20.08;;;8.90;85.50;;;;;;5115322;28;20234;-75
2021/05/07 06:25:13;;;;;;;22.85;21.40;;;9.00;84.70;;;;;;5115360;28;20309;-76
2021/05/07 06:27:40;;;;;;;21.80;20.60;;;9.00;84.70;;;;;;5114656;28;20620;-75
2021/05/07 06:30:09;;;;;;;24.65;23.15;;;9.00;83.90;;;;;;5115314;28;20281;-77
2021/05/07 06:32:36;;;;;;;24.98;23.58;;;9.00;83.20;;;;;;5114472;28;20294;-76
2021/05/07 06:35:03;;;;;;;22.30;21.13;;;9.00;83.30;;;;;;5113790;28;20542;-76
2021/05/07 06:37:29;;;;;;;22.60;21.30;;;8.90;83.60;;;;;;5094013;28;20187;-75
2021/05/07 06:39:55;;;;;;;20.80;19.63;;;8.90;86.20;;;;;;5094571;28;20206;-76
2021/05/07 06:42:22;;;;;;;23.77;22.45;;;9.10;88.50;;;;;;5095052;28;20314;-79
2021/05/07 06:44:49;;;;;;;24.65;23.25;;;9.30;85.20;;;;;;5115891;28;20218;-78
2021/05/07 06:47:19;;;;;;;22.73;21.42;;;9.40;83.30;;;;;;5103959;28;20188;-78
2021/05/07 06:49:45;;;;;;;22.63;21.33;;;9.40;83.30;;;;;;5101490;27;20198;-77
2021/05/07 06:52:12;;;;;;;24.38;22.60;;;9.40;84.40;;;;;;5097146;28;20568;-78
2021/05/07 06:54:39;;;;;;;22.38;21.08;;;9.40;83.30;;;;;;5104400;28;20308;-78
2021/05/07 06:57:06;;;;;;;22.73;21.42;;;9.30;82.60;;;;;;5104360;27;20703;-77
2021/05/07 06:59:33;;;;;;;32.08;22.63;;;9.20;84.50;;;;;;5106653;28;20191;-78
2021/05/07 07:02:00;;;;;;;23.48;22.17;;;9.20;85.40;;;;;;5110338;28;20741;-79
2021/05/07 07:04:27;;;;;;;22.90;21.70;;;9.10;84.30;;;;;;5092408;28;20207;-76
2021/05/07 07:06:54;;;;;;;24.30;22.60;;;9.20;84.10;;;;;;5095930;28;20194;-76
2021/05/07 07:09:20;;;;;;;24.60;23.10;;;9.10;83.70;;;;;;5110285;28;20942;-76
2021/05/07 07:11:47;;;;;;;25.48;23.98;;;9.10;83.20;;;;;;5106920;28;20845;-76
2021/05/07 07:14:13;;;;;;;25.50;24.05;;;9.10;80.40;;;;;;5100700;28;20683;-76
2021/05/07 07:16:40;;;;;;;25.23;23.58;;;9.00;80.80;;;;;;5090796;28;20188;-77
2021/05/07 07:19:07;;;;;;;26.95;25.25;;;8.90;82.00;;;;;;5091322;28;20213;-78
2021/05/07 07:21:34;;;;;;;25.70;24.20;;;9.00;80.90;;;;;;5110048;28;20301;-76
2021/05/07 07:24:00;;;;;;;25.23;23.73;;;8.90;81.60;;;;;;5092082;28;20285;-76
2021/05/07 07:26:27;;;;;;;26.23;24.58;;;8.80;81.00;;;;;;5094016;27;20722;-78
2021/05/07 07:28:54;;;;;;;25.60;23.90;;;8.60;80.40;;;;;;5110820;28;20281;-77
2021/05/07 07:31:23;;;;;;;25.55;24.08;;;8.40;81.50;;;;;;5094982;28;20220;-76
2021/05/07 07:33:49;;;;;;;26.45;24.85;;;8.30;82.30;;;;;;5106209;28;20545;-76
2021/05/07 07:36:16;;;;;;;25.20;23.40;;;8.20;82.40;;;;;;5104566;28;20191;-75
2021/05/07 07:38:43;;;;;;;25.90;24.25;;;8.20;82.20;;;;;;5095425;28;20202;-75
2021/05/07 07:41:10;;;;;;;24.48;22.88;;;8.20;82.90;;;;;;5107045;28;20305;-75
2021/05/07 07:43:37;;;;;;;25.33;23.60;;;8.30;83.10;;;;;;5109705;28;20199;-74
2021/05/07 07:46:03;;;;;;;25.25;23.83;;;8.50;82.90;;;;;;5091599;28;20250;-75
2021/05/07 07:48:29;;;;;;;27.00;25.25;;;8.60;80.70;;;;;;5105039;28;20195;-74
2021/05/07 07:50:56;;;;;;;26.38;24.58;;;8.60;80.30;;;;;;5109351;28;20264;-74
2021/05/07 07:53:22;;;;;;;27.00;25.50;;;8.80;80.10;;;;;;5109870;28;20186;-75
2021/05/07 07:55:52;;;;;;;27.73;25.85;;;9.00;79.00;;;;;;5109324;27;20751;-75
2021/05/07 07:58:19;;;;;;;27.60;25.88;;;9.10;78.10;;;;;;5110318;28;20191;-75
2021/05/07 08:00:46;;;;;;;26.77;24.77;;;9.00;78.30;;;;;;5100732;28;20301;-75
2021/05/07 08:03:13;;;;;;;27.27;25.45;;;8.90;79.00;;;;;;5109984;28;20201;-76
2021/05/07 08:05:39;;;;;;;27.27;25.58;;;8.80;79.30;;;;;;5109266;28;20308;-75
2021/05/07 08:08:06;;;;;;;28.13;25.33;;;9.00;78.20;;;;;;5110360;28;20201;-77
2021/05/07 08:10:33;;;;;;;26.10;24.60;;;9.10;78.20;;;;;;5108619;28;20215;-73
2021/05/07 08:13:00;;;;;;;26.70;25.00;;;9.00;77.00;;;;;;5109378;28;20218;-73
2021/05/07 08:15:27;;;;;;;27.77;25.75;;;8.90;77.50;;;;;;5096965;28;20217;-73
2021/05/07 08:17:54;;;;;;;26.08;24.58;;;9.20;76.10;;;;;;5089750;28;20278;-73
2021/05/07 08:20:22;;;;;;;39.13;27.08;;;9.50;76.40;;;;;;5088812;28;20239;-74
2021/05/07 08:22:49;;;;;;;48.33;30.35;;;9.60;75.20;;;;;;5088751;28;20199;-74
2021/05/07 08:25:17;;;;;;;27.35;25.75;;;10.00;74.10;;;;;;5092755;28;20217;-74
2021/05/07 08:27:44;;;;;;;28.25;26.35;;;10.10;72.90;;;;;;5098786;28;20462;-73
2021/05/07 08:30:13;;;;;;;28.03;26.43;;;9.90;74.20;;;;;;5108187;27;20190;-74
2021/05/07 08:32:39;;;;;;;27.00;25.40;;;10.30;74.60;;;;;;5108374;27;20657;-75
2021/05/07 08:35:08;;;;;;;27.20;25.38;;;10.60;69.20;;;;;;5100341;28;21016;-75
2021/05/07 08:37:42;;;;;;;27.02;25.42;;;10.30;70.60;;;;;;5088280;28;20252;-74
2021/05/07 08:40:10;;;;;;;26.25;24.75;;;10.20;70.80;;;;;;5088130;28;20234;-73
2021/05/07 08:42:37;;;;;;;27.15;25.48;;;10.40;70.60;;;;;;5088309;28;20215;-75
2021/05/07 08:45:05;;;;;;;26.07;24.50;;;10.30;70.50;;;;;;5100495;28;20210;-75
2021/05/07 08:47:34;;;;;;;26.60;25.10;;;10.30;71.60;;;;;;5102534;28;20486;-76
2021/05/07 08:50:01;;;;;;;26.00;24.50;;;10.60;69.40;;;;;;5088553;28;20199;-76
2021/05/07 08:52:28;;;;;;;26.77;25.20;;;10.70;68.60;;;;;;5087065;28;20246;-73
2021/05/07 08:54:56;;;;;;;26.15;24.75;;;10.50;67.70;;;;;;5093621;28;20871;-73
2021/05/07 08:57:24;;;;;;;25.15;23.75;;;10.10;68.10;;;;;;5097309;28;20195;-73
2021/05/07 08:59:50;;;;;;;26.70;25.10;;;10.00;68.80;;;;;;5097306;28;20207;-73
2021/05/07 09:02:27;;;;;;;26.00;24.40;;;10.00;68.40;;;;;;5095206;28;20214;-73
2021/05/07 09:04:56;;;;;;;27.60;25.73;;;10.10;70.40;;;;;;5097638;28;20293;-73
2021/05/07 09:07:23;;;;;;;27.10;25.40;;;10.20;67.50;;;;;;5094181;28;20317;-73
2021/05/07 09:09:52;;;;;;;25.55;24.15;;;10.40;66.40;;;;;;5098506;28;20282;-74
2021/05/07 09:12:30;;;;;;;28.05;26.27;;;10.50;66.00;;;;;;5094825;28;20217;-73
2021/05/07 09:14:58;;;;;;;27.55;25.80;;;10.70;66.40;;;;;;5086953;28;20607;-74
2021/05/07 09:17:26;;;;;;;27.40;25.80;;;10.80;63.30;;;;;;5086965;28;20337;-73
2021/05/07 09:20:06;;;;;;;29.83;28.13;;;10.70;63.70;;;;;;5086964;28;20455;-73
2021/05/07 09:22:33;;;;;;;27.97;26.20;;;10.60;64.60;;;;;;5094987;28;20479;-73
2021/05/07 09:25:06;;;;;;;26.90;25.40;;;10.50;64.40;;;;;;5091570;28;20538;-73
2021/05/07 09:27:33;;;;;;;27.70;26.10;;;10.60;65.30;;;;;;5096573;28;20465;-73
2021/05/07 09:29:59;;;;;;;27.20;25.60;;;10.90;63.50;;;;;;5095320;27;20195;-73
2021/05/07 09:32:30;;;;;;;28.30;26.70;;;11.20;63.40;;;;;;5096566;28;20464;-74
2021/05/07 09:35:08;;;;;;;28.95;26.90;;;11.30;61.60;;;;;;5100860;28;20491;-73
2021/05/07 09:37:34;;;;;;;28.25;26.50;;;11.20;60.90;;;;;;5095938;28;20191;-73
2021/05/07 09:40:13;;;;;;;28.00;26.40;;;11.00;62.40;;;;;;5096319;28;20199;-72
2021/05/07 09:42:40;;;;;;;27.73;26.03;;;11.20;62.50;;;;;;5099384;28;20465;-74
2021/05/07 09:45:18;;;;;;;29.30;27.60;;;11.30;61.30;;;;;;5100054;28;20483;-75
2021/05/07 09:47:47;;;;;;;27.43;25.83;;;11.80;60.90;;;;;;5095082;28;20467;-74
2021/05/07 09:50:16;;;;;;;28.77;26.63;;;11.90;60.50;;;;;;5101526;28;20794;-74
2021/05/07 09:52:44;;;;;;;27.70;26.07;;;11.90;58.80;;;;;;5099954;28;20468;-74
2021/05/07 09:55:11;;;;;;;27.33;25.63;;;11.90;57.60;;;;;;5100451;28;20556;-73
2021/05/07 09:57:39;;;;;;;26.87;25.37;;;12.00;55.10;;;;;;5095186;28;20467;-72
2021/05/07 10:00:07;;;;;;;27.60;26.00;;;11.80;52.00;;;;;;5090966;28;20447;-73
2021/05/07 10:02:34;;;;;;;26.20;24.60;;;11.90;54.30;;;;;;5094004;28;20464;-72
2021/05/07 10:05:01;;;;;;;25.83;24.33;;;12.00;51.80;;;;;;5093376;28;21121;-73
2021/05/07 10:07:29;;;;;;;26.60;25.00;;;12.10;50.80;;;;;;5104972;28;20539;-73
2021/05/07 10:10:08;;;;;;;27.60;26.00;;;12.30;52.30;;;;;;5101932;28;20457;-73
2021/05/07 10:12:38;;;;;;;26.30;24.83;;;12.70;51.70;;;;;;5092261;28;20449;-73
2021/05/07 10:15:05;;;;;;;28.83;27.03;;;12.60;49.30;;;;;;5098616;28;20441;-73
2021/05/07 10:17:32;;;;;;;26.10;24.60;;;12.60;50.70;;;;;;5091276;28;20456;-73
2021/05/07 10:19:59;;;;;;;25.80;24.30;;;12.80;52.10;;;;;;5110283;27;20547;-74
2021/05/07 10:22:38;;;;;;;26.73;25.07;;;13.10;51.30;;;;;;5103281;28;20897;-73
2021/05/07 10:25:15;;;;;;;26.13;24.63;;;13.40;51.00;;;;;;5090809;28;20505;-74
2021/05/07 10:27:46;;;;;;;26.60;25.03;;;13.70;48.90;;;;;;5094125;28;20548;-73
2021/05/07 10:30:25;;;;;;;26.07;24.57;;;13.60;47.10;;;;;;5108800;27;20460;-74
2021/05/07 10:33:03;;;;;;;27.50;25.90;;;13.50;48.50;;;;;;5101416;28;20508;-74
2021/05/07 10:35:32;;;;;;;26.17;24.67;;;13.30;47.90;;;;;;5109304;28;20527;-74
2021/05/07 10:38:11;;;;;;;25.70;24.30;;;13.20;48.10;;;;;;5108878;28;20467;-73
2021/05/07 10:40:38;;;;;;;26.77;25.17;;;13.20;49.50;;;;;;5100573;27;20468;-73
2021/05/07 10:43:06;;;;;;;27.97;26.17;;;13.10;49.90;;;;;;5095585;28;21048;-73
2021/05/07 10:45:45;;;;;;;28.40;26.90;;;13.10;47.10;;;;;;5109778;28;21084;-75
2021/05/07 10:48:15;;;;;;;25.73;24.20;;;13.20;49.30;;;;;;5102187;28;20540;-76
2021/05/07 10:50:42;;;;;;;26.10;24.40;;;13.50;47.80;;;;;;5109815;28;20503;-77
2021/05/07 10:53:10;;;;;;;26.07;24.57;;;13.50;47.80;;;;;;5092456;28;20444;-75
2021/05/07 10:55:36;;;;;;;27.10;25.50;;;13.60;48.00;;;;;;5090362;28;20453;-75
2021/05/07 10:58:04;;;;;;;24.63;23.13;;;13.70;47.90;;;;;;5091399;28;20603;-76
2021/05/07 11:00:35;;;;;;;28.27;26.57;;;13.20;45.90;;;;;;5096829;28;20504;-76
2021/05/07 11:03:04;;;;;;;25.90;24.30;;;13.00;48.00;;;;;;5098016;28;20513;-74
2021/05/07 11:05:38;;;;;;;28.50;26.80;;;13.10;46.10;;;;;;5109250;27;20916;-76
2021/05/07 11:08:05;;;;;;;26.63;25.03;;;12.80;47.20;;;;;;5096556;28;20814;-73
2021/05/07 11:10:32;;;;;;;27.07;25.47;;;12.60;47.90;;;;;;5089883;28;20548;-79
2021/05/07 11:12:59;;;;;;;28.97;25.90;;;12.50;49.00;;;;;;5093358;28;20499;-74
2021/05/07 11:15:26;;;;;;;31.20;29.20;;;12.50;48.80;;;;;;5110101;28;20527;-74
2021/05/07 11:17:59;;;;;;;26.00;24.40;;;12.50;49.30;;;;;;5103077;27;20460;-75
2021/05/07 11:20:34;;;;;;;25.97;24.40;;;12.50;49.90;;;;;;5089498;28;20575;-75
2021/05/07 11:23:03;;;;;;;27.53;25.73;;;12.50;49.80;;;;;;5089363;28;20958;-75
2021/05/07 11:25:33;;;;;;;26.53;24.90;;;12.50;50.80;;;;;;5089375;28;20554;-71
2021/05/07 11:28:16;;;;;;;26.90;25.10;;;12.50;47.60;;;;;;5090904;28;20456;-71
2021/05/07 11:30:50;;;;;;;27.37;25.67;;;12.20;49.40;;;;;;5106316;28;20472;-71
2021/05/07 11:33:45;;;;;;;28.97;27.17;;;12.20;50.60;;;;;;5100681;28;20455;-71
2021/05/07 11:36:16;;;;;;;27.13;25.50;;;12.20;49.50;;;;;;5091010;28;20807;-72
2021/05/07 11:38:45;;;;;;;26.03;24.53;;;12.20;50.60;;;;;;5090040;28;20866;-71
2021/05/07 11:41:33;;;;;;;28.33;26.63;;;12.40;49.90;;;;;;5099390;28;21052;-73
2021/05/07 11:44:07;;;;;;;26.80;25.30;;;12.50;50.60;;;;;;5101036;28;20466;-72
2021/05/07 11:46:57;;;;;;;28.07;26.00;;;12.40;50.20;;;;;;5093166;28;20596;-72
2021/05/07 11:49:23;;;;;;;29.53;27.63;;;12.20;50.80;;;;;;5089167;28;20536;-72
2021/05/07 11:51:50;;;;;;;28.20;26.53;;;12.30;52.40;;;;;;5089311;28;20472;-72
2021/05/07 11:54:16;;;;;;;26.77;25.27;;;12.60;51.80;;;;;;5090461;28;20990;-73
2021/05/07 11:56:44;;;;;;;27.50;25.90;;;12.70;51.30;;;;;;5089048;28;20456;-73
2021/05/07 11:59:11;;;;;;;27.40;25.70;;;12.70;51.40;;;;;;5104058;28;20464;-73
2021/05/07 12:01:48;;;;;;;27.33;25.70;;;12.70;51.00;;;;;;5109227;28;20499;-72
2021/05/07 12:04:19;;;;;;;27.40;25.77;;;12.60;51.70;;;;;;5106086;28;20456;-73
2021/05/07 12:06:46;;;;;;;28.70;27.00;;;12.70;52.20;;;;;;5088694;28;20484;-72
2021/05/07 12:09:13;;;;;;;26.93;25.40;;;12.70;51.40;;;;;;5088025;28;20460;-71
2021/05/07 12:11:40;;;;;;;26.73;25.13;;;12.80;51.20;;;;;;5087872;28;20473;-70
2021/05/07 12:14:12;;;;;;;25.77;24.37;;;12.90;50.80;;;;;;5103607;28;20479;-72
2021/05/07 12:16:39;;;;;;;26.93;25.30;;;13.10;50.10;;;;;;5088863;28;21326;-71
2021/05/07 12:19:06;;;;;;;26.40;24.90;;;13.20;49.60;;;;;;5087838;28;20461;-72
2021/05/07 12:21:40;;;;;;;28.43;26.67;;;13.10;49.40;;;;;;5088674;28;20792;-72
2021/05/07 12:24:07;;;;;;;27.60;26.00;;;13.00;49.10;;;;;;5088758;28;20496;-72
2021/05/07 12:26:48;;;;;;;27.30;25.73;;;13.30;49.00;;;;;;5096981;28;20480;-72
2021/05/07 12:29:15;;;;;;;26.80;24.90;;;13.50;47.90;;;;;;5089765;28;20465;-74
2021/05/07 12:31:42;;;;;;;25.93;24.50;;;13.50;47.60;;;;;;5094127;28;20477;-72
2021/05/07 12:34:16;;;;;;;26.77;25.20;;;13.40;47.00;;;;;;5091988;28;20530;-74
2021/05/07 12:36:43;;;;;;;25.97;24.53;;;13.10;47.00;;;;;;5086789;28;20511;-74
2021/05/07 12:39:13;;;;;;;27.10;25.40;;;12.80;47.50;;;;;;5084850;28;20484;-75